sensor_id;sensor_type;location;lat;lon;timestamp;P1;durP1;ratioP1;P2;durP2;ratioP2
37311;SDS011;23197;53.912;9.138;2022-07-30T00:00:25;4.25;;;2.70;;
37311;SDS011;23197;53.912;9.138;2022-07-30T00:02:51;7.15;;;3.28;;
37311;SDS011;23197;53.912;9.138;2022-07-30T00:05:17;8.20;;;2.92;;
37311;SDS011;23197;53.912;9.138;2022-07-30T00:07:42;9.02;;;3.42;;
37311;SDS011;23197;53.912;9.138;2022-07-30T00:10:08;5.82;;;3.50;;
37311;SDS011;23197;53.912;9.138;2022-07-30T00:12:33;7.40;;;3.65;;
37311;SDS011;23197;53.912;9.138;2022-07-30T00:14:59;5.93;;;3.20;;
37311;SDS011;23197;53.912;9.138;2022-07-30T00:17:24;6.38;;;3.55;;
37311;SDS011;23197;53.912;9.138;2022-07-30T00:19:50;6.95;;;3.20;;
37311;SDS011;23197;53.912;9.138;2022-07-30T00:22:15;7.32;;;3.25;;
37311;SDS011;23197;53.912;9.138;2022-07-30T00:24:41;9.00;;;3.83;;
37311;SDS011;23197;53.912;9.138;2022-07-30T00:27:06;8.45;;;3.50;;
37311;SDS011;23197;53.912;9.138;2022-07-30T00:29:32;6.22;;;3.05;;
37311;SDS011;23197;53.912;9.138;2022-07-30T00:31:57;6.47;;;3.40;;
37311;SDS011;23197;53.912;9.138;2022-07-30T00:34:23;7.95;;;3.20;;
37311;SDS011;23197;53.912;9.138;2022-07-30T00:36:50;7.47;;;3.40;;
37311;SDS011;23197;53.912;9.138;2022-07-30T00:39:15;7.25;;;3.33;;
37311;SDS011;23197;53.912;9.138;2022-07-30T00:41:55;8.82;;;3.22;;
37311;SDS011;23197;53.912;9.138;2022-07-30T00:44:25;7.00;;;3.50;;
37311;SDS011;23197;53.912;9.138;2022-07-30T00:46:52;8.32;;;3.65;;
37311;SDS011;23197;53.912;9.138;2022-07-30T00:49:18;7.32;;;3.15;;
37311;SDS011;23197;53.912;9.138;2022-07-30T00:51:43;6.75;;;3.03;;
37311;SDS011;23197;53.912;9.138;2022-07-30T00:54:09;6.85;;;3.05;;
37311;SDS011;23197;53.912;9.138;2022-07-30T00:56:35;11.05;;;3.30;;
37311;SDS011;23197;53.912;9.138;2022-07-30T00:59:00;5.35;;;2.72;;
37311;SDS011;23197;53.912;9.138;2022-07-30T01:01:26;6.13;;;2.80;;
37311;SDS011;23197;53.912;9.138;2022-07-30T01:03:51;7.53;;;2.80;;
37311;SDS011;23197;53.912;9.138;2022-07-30T01:06:16;6.38;;;2.65;;
37311;SDS011;23197;53.912;9.138;2022-07-30T01:08:42;7.43;;;2.90;;
37311;SDS011;23197;53.912;9.138;2022-07-30T01:11:08;4.80;;;2.80;;
37311;SDS011;23197;53.912;9.138;2022-07-30T01:13:40;6.85;;;2.67;;
37311;SDS011;23197;53.912;9.138;2022-07-30T01:16:06;8.10;;;3.05;;
37311;SDS011;23197;53.912;9.138;2022-07-30T01:18:32;7.55;;;3.00;;
37311;SDS011;23197;53.912;9.138;2022-07-30T01:21:17;8.35;;;2.92;;
37311;SDS011;23197;53.912;9.138;2022-07-30T01:23:49;8.85;;;3.38;;
37311;SDS011;23197;53.912;9.138;2022-07-30T01:26:17;8.07;;;3.00;;
37311;SDS011;23197;53.912;9.138;2022-07-30T01:28:48;8.98;;;3.80;;
37311;SDS011;23197;53.912;9.138;2022-07-30T01:31:16;9.32;;;3.15;;
37311;SDS011;23197;53.912;9.138;2022-07-30T01:33:44;5.43;;;2.92;;
37311;SDS011;23197;53.912;9.138;2022-07-30T01:36:12;6.72;;;3.17;;
37311;SDS011;23197;53.912;9.138;2022-07-30T01:38:42;5.82;;;3.10;;
37311;SDS011;23197;53.912;9.138;2022-07-30T01:41:09;7.82;;;3.30;;
37311;SDS011;23197;53.912;9.138;2022-07-30T01:43:35;7.65;;;3.60;;
37311;SDS011;23197;53.912;9.138;2022-07-30T01:46:02;6.45;;;3.08;;
37311;SDS011;23197;53.912;9.138;2022-07-30T01:48:31;7.78;;;2.97;;
37311;SDS011;23197;53.912;9.138;2022-07-30T01:51:01;7.00;;;2.90;;
37311;SDS011;23197;53.912;9.138;2022-07-30T01:53:30;5.13;;;2.78;;
37311;SDS011;23197;53.912;9.138;2022-07-30T01:55:59;7.72;;;3.03;;
37311;SDS011;23197;53.912;9.138;2022-07-30T01:58:27;6.22;;;2.80;;
37311;SDS011;23197;53.912;9.138;2022-07-30T02:01:02;4.53;;;2.83;;
37311;SDS011;23197;53.912;9.138;2022-07-30T02:03:29;5.28;;;2.80;;
37311;SDS011;23197;53.912;9.138;2022-07-30T02:05:56;5.68;;;3.00;;
37311;SDS011;23197;53.912;9.138;2022-07-30T02:11:09;6.05;;;3.22;;
37311;SDS011;23197;53.912;9.138;2022-07-30T02:14:00;9.50;;;3.05;;
37311;SDS011;23197;53.912;9.138;2022-07-30T02:16:33;10.07;;;3.05;;
37311;SDS011;23197;53.912;9.138;2022-07-30T02:21:32;9.02;;;3.13;;
37311;SDS011;23197;53.912;9.138;2022-07-30T02:24:01;5.70;;;2.60;;
37311;SDS011;23197;53.912;9.138;2022-07-30T02:26:30;5.68;;;2.63;;
37311;SDS011;23197;53.912;9.138;2022-07-30T02:28:59;7.65;;;3.15;;
37311;SDS011;23197;53.912;9.138;2022-07-30T02:31:27;5.47;;;2.95;;
37311;SDS011;23197;53.912;9.138;2022-07-30T02:33:58;7.13;;;3.13;;
37311;SDS011;23197;53.912;9.138;2022-07-30T02:36:27;8.10;;;3.40;;
37311;SDS011;23197;53.912;9.138;2022-07-30T02:38:55;6.70;;;3.42;;
37311;SDS011;23197;53.912;9.138;2022-07-30T02:41:23;6.80;;;3.47;;
37311;SDS011;23197;53.912;9.138;2022-07-30T02:43:51;9.10;;;3.90;;
37311;SDS011;23197;53.912;9.138;2022-07-30T02:46:18;7.00;;;3.40;;
37311;SDS011;23197;53.912;9.138;2022-07-30T02:49:05;6.60;;;3.85;;
37311;SDS011;23197;53.912;9.138;2022-07-30T02:51:33;6.63;;;3.85;;
37311;SDS011;23197;53.912;9.138;2022-07-30T02:54:00;7.35;;;3.97;;
37311;SDS011;23197;53.912;9.138;2022-07-30T02:56:28;10.35;;;3.85;;
37311;SDS011;23197;53.912;9.138;2022-07-30T02:58:55;9.27;;;4.40;;
37311;SDS011;23197;53.912;9.138;2022-07-30T03:01:22;8.55;;;3.80;;
37311;SDS011;23197;53.912;9.138;2022-07-30T03:03:49;9.95;;;4.40;;
37311;SDS011;23197;53.912;9.138;2022-07-30T03:06:16;9.30;;;3.95;;
37311;SDS011;23197;53.912;9.138;2022-07-30T03:08:44;9.82;;;3.75;;
37311;SDS011;23197;53.912;9.138;2022-07-30T03:11:11;8.95;;;4.00;;
37311;SDS011;23197;53.912;9.138;2022-07-30T03:13:39;7.70;;;3.88;;
37311;SDS011;23197;53.912;9.138;2022-07-30T03:16:06;9.10;;;3.97;;
37311;SDS011;23197;53.912;9.138;2022-07-30T03:18:35;11.63;;;4.07;;
37311;SDS011;23197;53.912;9.138;2022-07-30T03:21:02;9.65;;;3.70;;
37311;SDS011;23197;53.912;9.138;2022-07-30T03:23:32;8.98;;;4.40;;
37311;SDS011;23197;53.912;9.138;2022-07-30T03:26:01;8.23;;;3.80;;
37311;SDS011;23197;53.912;9.138;2022-07-30T03:28:32;8.77;;;3.80;;
37311;SDS011;23197;53.912;9.138;2022-07-30T03:31:01;8.30;;;4.38;;
37311;SDS011;23197;53.912;9.138;2022-07-30T03:33:29;9.60;;;4.75;;
37311;SDS011;23197;53.912;9.138;2022-07-30T03:35:55;9.07;;;4.47;;
37311;SDS011;23197;53.912;9.138;2022-07-30T03:38:22;13.90;;;5.50;;
37311;SDS011;23197;53.912;9.138;2022-07-30T03:40:49;10.10;;;5.25;;
37311;SDS011;23197;53.912;9.138;2022-07-30T03:43:16;9.75;;;5.45;;
37311;SDS011;23197;53.912;9.138;2022-07-30T03:45:43;8.68;;;4.70;;
37311;SDS011;23197;53.912;9.138;2022-07-30T03:48:10;7.32;;;4.28;;
37311;SDS011;23197;53.912;9.138;2022-07-30T03:50:41;8.68;;;4.22;;
37311;SDS011;23197;53.912;9.138;2022-07-30T03:53:08;9.18;;;4.70;;
37311;SDS011;23197;53.912;9.138;2022-07-30T03:55:53;8.45;;;4.65;;
37311;SDS011;23197;53.912;9.138;2022-07-30T03:58:52;12.32;;;5.53;;
37311;SDS011;23197;53.912;9.138;2022-07-30T04:01:18;9.57;;;5.10;;
37311;SDS011;23197;53.912;9.138;2022-07-30T04:03:43;11.32;;;4.78;;
37311;SDS011;23197;53.912;9.138;2022-07-30T04:06:10;10.68;;;4.95;;
37311;SDS011;23197;53.912;9.138;2022-07-30T04:08:35;8.85;;;4.80;;
37311;SDS011;23197;53.912;9.138;2022-07-30T04:11:01;10.63;;;4.97;;
37311;SDS011;23197;53.912;9.138;2022-07-30T04:13:47;7.88;;;5.07;;
37311;SDS011;23197;53.912;9.138;2022-07-30T04:16:17;11.57;;;4.93;;
37311;SDS011;23197;53.912;9.138;2022-07-30T04:18:49;7.80;;;4.68;;
37311;SDS011;23197;53.912;9.138;2022-07-30T04:21:17;9.57;;;4.70;;
37311;SDS011;23197;53.912;9.138;2022-07-30T04:23:46;8.98;;;4.70;;
37311;SDS011;23197;53.912;9.138;2022-07-30T04:26:14;9.23;;;5.07;;
37311;SDS011;23197;53.912;9.138;2022-07-30T04:28:41;11.27;;;5.03;;
37311;SDS011;23197;53.912;9.138;2022-07-30T04:31:08;9.10;;;5.10;;
37311;SDS011;23197;53.912;9.138;2022-07-30T04:33:35;11.05;;;5.18;;
37311;SDS011;23197;53.912;9.138;2022-07-30T04:36:14;8.18;;;4.63;;
37311;SDS011;23197;53.912;9.138;2022-07-30T04:38:40;7.65;;;4.80;;
37311;SDS011;23197;53.912;9.138;2022-07-30T04:41:06;9.85;;;5.40;;
37311;SDS011;23197;53.912;9.138;2022-07-30T04:43:55;9.40;;;5.13;;
37311;SDS011;23197;53.912;9.138;2022-07-30T04:46:20;8.05;;;5.22;;
37311;SDS011;23197;53.912;9.138;2022-07-30T04:48:47;10.35;;;5.35;;
37311;SDS011;23197;53.912;9.138;2022-07-30T04:51:17;9.00;;;4.93;;
37311;SDS011;23197;53.912;9.138;2022-07-30T04:53:47;12.80;;;5.50;;
37311;SDS011;23197;53.912;9.138;2022-07-30T04:56:17;9.15;;;5.40;;
37311;SDS011;23197;53.912;9.138;2022-07-30T04:58:43;9.35;;;5.57;;
37311;SDS011;23197;53.912;9.138;2022-07-30T05:01:10;8.27;;;5.03;;
37311;SDS011;23197;53.912;9.138;2022-07-30T05:03:41;8.35;;;4.85;;
37311;SDS011;23197;53.912;9.138;2022-07-30T05:06:07;8.20;;;4.75;;
37311;SDS011;23197;53.912;9.138;2022-07-30T05:08:37;9.98;;;4.53;;
37311;SDS011;23197;53.912;9.138;2022-07-30T05:11:05;8.88;;;4.88;;
37311;SDS011;23197;53.912;9.138;2022-07-30T05:13:34;8.63;;;4.60;;
37311;SDS011;23197;53.912;9.138;2022-07-30T05:16:02;9.57;;;4.90;;
37311;SDS011;23197;53.912;9.138;2022-07-30T05:18:27;10.00;;;4.65;;
37311;SDS011;23197;53.912;9.138;2022-07-30T05:20:53;7.20;;;4.38;;
37311;SDS011;23197;53.912;9.138;2022-07-30T05:23:21;9.90;;;4.15;;
37311;SDS011;23197;53.912;9.138;2022-07-30T05:26:05;7.35;;;4.30;;
37311;SDS011;23197;53.912;9.138;2022-07-30T05:28:43;10.80;;;4.55;;
37311;SDS011;23197;53.912;9.138;2022-07-30T05:31:11;9.02;;;5.25;;
37311;SDS011;23197;53.912;9.138;2022-07-30T05:33:37;10.07;;;4.53;;
37311;SDS011;23197;53.912;9.138;2022-07-30T05:36:04;10.80;;;4.68;;
37311;SDS011;23197;53.912;9.138;2022-07-30T05:38:30;7.05;;;4.50;;
37311;SDS011;23197;53.912;9.138;2022-07-30T05:41:16;9.02;;;5.25;;
37311;SDS011;23197;53.912;9.138;2022-07-30T05:44:03;6.93;;;4.07;;
37311;SDS011;23197;53.912;9.138;2022-07-30T05:46:29;8.90;;;4.47;;
37311;SDS011;23197;53.912;9.138;2022-07-30T05:48:55;7.90;;;4.22;;
37311;SDS011;23197;53.912;9.138;2022-07-30T05:51:21;8.75;;;4.63;;
37311;SDS011;23197;53.912;9.138;2022-07-30T05:53:47;7.40;;;4.80;;
37311;SDS011;23197;53.912;9.138;2022-07-30T05:56:35;7.05;;;4.10;;
37311;SDS011;23197;53.912;9.138;2022-07-30T05:59:31;8.23;;;4.68;;
37311;SDS011;23197;53.912;9.138;2022-07-30T06:02:03;8.85;;;4.43;;
37311;SDS011;23197;53.912;9.138;2022-07-30T06:04:49;6.07;;;3.85;;
37311;SDS011;23197;53.912;9.138;2022-07-30T06:07:15;6.35;;;3.85;;
37311;SDS011;23197;53.912;9.138;2022-07-30T06:09:40;8.50;;;4.78;;
37311;SDS011;23197;53.912;9.138;2022-07-30T06:12:07;7.05;;;4.03;;
37311;SDS011;23197;53.912;9.138;2022-07-30T06:14:32;7.07;;;3.90;;
37311;SDS011;23197;53.912;9.138;2022-07-30T06:16:58;10.43;;;4.50;;
37311;SDS011;23197;53.912;9.138;2022-07-30T06:19:27;7.68;;;4.20;;
37311;SDS011;23197;53.912;9.138;2022-07-30T06:21:53;6.57;;;3.92;;
37311;SDS011;23197;53.912;9.138;2022-07-30T06:24:20;7.85;;;3.83;;
37311;SDS011;23197;53.912;9.138;2022-07-30T06:27:02;8.48;;;3.92;;
37311;SDS011;23197;53.912;9.138;2022-07-30T06:29:29;7.70;;;3.80;;
37311;SDS011;23197;53.912;9.138;2022-07-30T06:31:55;7.25;;;3.65;;
37311;SDS011;23197;53.912;9.138;2022-07-30T06:34:21;8.60;;;3.83;;
37311;SDS011;23197;53.912;9.138;2022-07-30T06:36:47;6.70;;;3.10;;
37311;SDS011;23197;53.912;9.138;2022-07-30T06:39:19;5.90;;;3.15;;
37311;SDS011;23197;53.912;9.138;2022-07-30T06:41:57;6.78;;;3.17;;
37311;SDS011;23197;53.912;9.138;2022-07-30T06:44:27;5.68;;;3.00;;
37311;SDS011;23197;53.912;9.138;2022-07-30T06:47:21;6.35;;;3.03;;
37311;SDS011;23197;53.912;9.138;2022-07-30T06:49:53;7.18;;;2.88;;
37311;SDS011;23197;53.912;9.138;2022-07-30T06:52:22;6.43;;;2.58;;
37311;SDS011;23197;53.912;9.138;2022-07-30T06:54:50;4.68;;;2.78;;
37311;SDS011;23197;53.912;9.138;2022-07-30T06:57:30;6.05;;;3.03;;
37311;SDS011;23197;53.912;9.138;2022-07-30T06:59:58;7.50;;;3.00;;
37311;SDS011;23197;53.912;9.138;2022-07-30T07:02:35;6.95;;;3.05;;
37311;SDS011;23197;53.912;9.138;2022-07-30T07:05:08;6.70;;;3.07;;
37311;SDS011;23197;53.912;9.138;2022-07-30T07:07:34;6.80;;;2.97;;
37311;SDS011;23197;53.912;9.138;2022-07-30T07:10:00;6.70;;;3.60;;
37311;SDS011;23197;53.912;9.138;2022-07-30T07:12:44;7.43;;;3.42;;
37311;SDS011;23197;53.912;9.138;2022-07-30T07:15:10;8.10;;;3.90;;
37311;SDS011;23197;53.912;9.138;2022-07-30T07:17:36;7.85;;;3.38;;
37311;SDS011;23197;53.912;9.138;2022-07-30T07:20:02;7.90;;;2.90;;
37311;SDS011;23197;53.912;9.138;2022-07-30T07:22:35;5.55;;;2.90;;
37311;SDS011;23197;53.912;9.138;2022-07-30T07:25:01;7.60;;;3.00;;
37311;SDS011;23197;53.912;9.138;2022-07-30T07:27:29;12.50;;;3.20;;
37311;SDS011;23197;53.912;9.138;2022-07-30T07:29:58;9.23;;;3.22;;
37311;SDS011;23197;53.912;9.138;2022-07-30T07:32:23;6.28;;;2.45;;
37311;SDS011;23197;53.912;9.138;2022-07-30T07:34:49;4.43;;;2.70;;
37311;SDS011;23197;53.912;9.138;2022-07-30T07:37:15;5.90;;;2.42;;
37311;SDS011;23197;53.912;9.138;2022-07-30T07:39:41;4.80;;;2.85;;
37311;SDS011;23197;53.912;9.138;2022-07-30T07:42:06;5.60;;;2.75;;
37311;SDS011;23197;53.912;9.138;2022-07-30T07:44:33;5.82;;;2.88;;
37311;SDS011;23197;53.912;9.138;2022-07-30T07:46:59;5.72;;;3.25;;
37311;SDS011;23197;53.912;9.138;2022-07-30T07:49:29;6.00;;;2.78;;
37311;SDS011;23197;53.912;9.138;2022-07-30T07:51:55;6.90;;;2.97;;
37311;SDS011;23197;53.912;9.138;2022-07-30T07:54:21;5.07;;;2.75;;
37311;SDS011;23197;53.912;9.138;2022-07-30T07:56:47;6.05;;;2.47;;
37311;SDS011;23197;53.912;9.138;2022-07-30T07:59:15;7.03;;;2.83;;
37311;SDS011;23197;53.912;9.138;2022-07-30T08:01:40;4.75;;;2.25;;
37311;SDS011;23197;53.912;9.138;2022-07-30T08:04:24;5.80;;;2.35;;
37311;SDS011;23197;53.912;9.138;2022-07-30T08:09:51;8.07;;;2.55;;
37311;SDS011;23197;53.912;9.138;2022-07-30T08:12:55;4.80;;;2.40;;
37311;SDS011;23197;53.912;9.138;2022-07-30T08:15:44;5.57;;;2.40;;
37311;SDS011;23197;53.912;9.138;2022-07-30T08:18:29;4.13;;;2.40;;
37311;SDS011;23197;53.912;9.138;2022-07-30T08:21:08;4.43;;;2.67;;
37311;SDS011;23197;53.912;9.138;2022-07-30T08:23:34;3.97;;;2.33;;
37311;SDS011;23197;53.912;9.138;2022-07-30T08:25:59;4.43;;;2.25;;
37311;SDS011;23197;53.912;9.138;2022-07-30T08:28:26;5.63;;;2.50;;
37311;SDS011;23197;53.912;9.138;2022-07-30T08:30:51;6.40;;;2.25;;
37311;SDS011;23197;53.912;9.138;2022-07-30T08:33:17;4.75;;;2.20;;
37311;SDS011;23197;53.912;9.138;2022-07-30T08:35:43;6.50;;;2.83;;
37311;SDS011;23197;53.912;9.138;2022-07-30T08:38:08;4.38;;;2.20;;
37311;SDS011;23197;53.912;9.138;2022-07-30T08:40:34;3.80;;;2.35;;
37311;SDS011;23197;53.912;9.138;2022-07-30T08:43:03;6.75;;;2.55;;
37311;SDS011;23197;53.912;9.138;2022-07-30T08:45:31;4.90;;;2.50;;
37311;SDS011;23197;53.912;9.138;2022-07-30T08:48:04;4.63;;;2.38;;
37311;SDS011;23197;53.912;9.138;2022-07-30T08:50:50;5.18;;;2.38;;
37311;SDS011;23197;53.912;9.138;2022-07-30T08:53:45;5.10;;;2.50;;
37311;SDS011;23197;53.912;9.138;2022-07-30T08:56:11;4.30;;;2.30;;
37311;SDS011;23197;53.912;9.138;2022-07-30T08:58:37;5.90;;;2.72;;
37311;SDS011;23197;53.912;9.138;2022-07-30T09:01:04;5.82;;;2.95;;
37311;SDS011;23197;53.912;9.138;2022-07-30T09:03:30;5.68;;;2.53;;
37311;SDS011;23197;53.912;9.138;2022-07-30T09:06:02;4.93;;;2.55;;
37311;SDS011;23197;53.912;9.138;2022-07-30T09:08:28;5.80;;;2.50;;
37311;SDS011;23197;53.912;9.138;2022-07-30T09:10:54;5.88;;;2.70;;
37311;SDS011;23197;53.912;9.138;2022-07-30T09:13:30;7.20;;;2.83;;
37311;SDS011;23197;53.912;9.138;2022-07-30T09:16:02;6.82;;;2.60;;
37311;SDS011;23197;53.912;9.138;2022-07-30T09:18:33;4.88;;;2.60;;
37311;SDS011;23197;53.912;9.138;2022-07-30T09:21:22;5.75;;;2.80;;
37311;SDS011;23197;53.912;9.138;2022-07-30T09:24:11;6.18;;;2.88;;
37311;SDS011;23197;53.912;9.138;2022-07-30T09:26:59;4.20;;;2.40;;
37311;SDS011;23197;53.912;9.138;2022-07-30T09:29:56;6.43;;;2.88;;
37311;SDS011;23197;53.912;9.138;2022-07-30T09:32:52;4.90;;;3.00;;
37311;SDS011;23197;53.912;9.138;2022-07-30T09:35:40;5.65;;;2.80;;
37311;SDS011;23197;53.912;9.138;2022-07-30T09:38:10;5.18;;;2.80;;
37311;SDS011;23197;53.912;9.138;2022-07-30T09:41:05;5.70;;;2.88;;
37311;SDS011;23197;53.912;9.138;2022-07-30T09:43:53;4.78;;;2.83;;
37311;SDS011;23197;53.912;9.138;2022-07-30T09:46:36;5.90;;;2.38;;
37311;SDS011;23197;53.912;9.138;2022-07-30T09:49:29;4.50;;;2.50;;
37311;SDS011;23197;53.912;9.138;2022-07-30T09:51:56;6.28;;;2.80;;
37311;SDS011;23197;53.912;9.138;2022-07-30T09:54:24;4.68;;;2.35;;
37311;SDS011;23197;53.912;9.138;2022-07-30T09:57:10;5.20;;;2.85;;
37311;SDS011;23197;53.912;9.138;2022-07-30T09:59:35;4.55;;;2.80;;
37311;SDS011;23197;53.912;9.138;2022-07-30T10:02:03;4.93;;;2.47;;
37311;SDS011;23197;53.912;9.138;2022-07-30T10:04:47;4.63;;;2.65;;
37311;SDS011;23197;53.912;9.138;2022-07-30T10:07:19;6.30;;;2.78;;
37311;SDS011;23197;53.912;9.138;2022-07-30T10:09:48;4.25;;;2.20;;
37311;SDS011;23197;53.912;9.138;2022-07-30T10:12:16;5.55;;;2.60;;
37311;SDS011;23197;53.912;9.138;2022-07-30T10:14:46;5.47;;;2.55;;
37311;SDS011;23197;53.912;9.138;2022-07-30T10:17:17;5.72;;;2.65;;
37311;SDS011;23197;53.912;9.138;2022-07-30T10:19:55;6.40;;;2.72;;
37311;SDS011;23197;53.912;9.138;2022-07-30T10:22:59;4.40;;;2.47;;
37311;SDS011;23197;53.912;9.138;2022-07-30T10:25:35;7.95;;;3.28;;
37311;SDS011;23197;53.912;9.138;2022-07-30T10:28:21;6.22;;;2.72;;
37311;SDS011;23197;53.912;9.138;2022-07-30T10:30:48;5.13;;;2.90;;
37311;SDS011;23197;53.912;9.138;2022-07-30T10:33:14;5.07;;;2.90;;
37311;SDS011;23197;53.912;9.138;2022-07-30T10:35:42;6.32;;;3.00;;
37311;SDS011;23197;53.912;9.138;2022-07-30T10:38:08;7.13;;;3.03;;
37311;SDS011;23197;53.912;9.138;2022-07-30T10:40:36;5.20;;;2.63;;
37311;SDS011;23197;53.912;9.138;2022-07-30T10:48:16;4.85;;;2.58;;
37311;SDS011;23197;53.912;9.138;2022-07-30T10:53:31;5.25;;;2.50;;
37311;SDS011;23197;53.912;9.138;2022-07-30T10:56:11;4.80;;;2.47;;
37311;SDS011;23197;53.912;9.138;2022-07-30T10:58:55;7.63;;;2.72;;
37311;SDS011;23197;53.912;9.138;2022-07-30T11:01:28;6.20;;;2.67;;
37311;SDS011;23197;53.912;9.138;2022-07-30T11:04:17;4.82;;;2.70;;
37311;SDS011;23197;53.912;9.138;2022-07-30T11:06:48;4.85;;;2.38;;
37311;SDS011;23197;53.912;9.138;2022-07-30T11:11:59;4.85;;;2.38;;
37311;SDS011;23197;53.912;9.138;2022-07-30T11:17:12;5.32;;;2.60;;
37311;SDS011;23197;53.912;9.138;2022-07-30T11:27:46;6.50;;;2.90;;
37311;SDS011;23197;53.912;9.138;2022-07-30T11:32:40;5.30;;;2.67;;
37311;SDS011;23197;53.912;9.138;2022-07-30T11:35:11;5.78;;;2.80;;
37311;SDS011;23197;53.912;9.138;2022-07-30T11:43:24;5.53;;;2.47;;
37311;SDS011;23197;53.912;9.138;2022-07-30T11:49:40;5.78;;;2.28;;
37311;SDS011;23197;53.912;9.138;2022-07-30T11:52:06;5.10;;;2.42;;
37311;SDS011;23197;53.912;9.138;2022-07-30T11:54:32;4.80;;;2.47;;
37311;SDS011;23197;53.912;9.138;2022-07-30T11:56:58;4.05;;;2.30;;
37311;SDS011;23197;53.912;9.138;2022-07-30T11:59:23;5.18;;;2.20;;
37311;SDS011;23197;53.912;9.138;2022-07-30T12:01:49;5.88;;;2.17;;
37311;SDS011;23197;53.912;9.138;2022-07-30T12:04:17;4.20;;;2.33;;
37311;SDS011;23197;53.912;9.138;2022-07-30T12:06:44;4.88;;;2.60;;
37311;SDS011;23197;53.912;9.138;2022-07-30T12:09:10;5.15;;;2.53;;
37311;SDS011;23197;53.912;9.138;2022-07-30T12:11:36;3.90;;;2.15;;
37311;SDS011;23197;53.912;9.138;2022-07-30T12:14:02;5.15;;;2.40;;
37311;SDS011;23197;53.912;9.138;2022-07-30T12:16:28;4.35;;;2.25;;
37311;SDS011;23197;53.912;9.138;2022-07-30T12:18:59;4.20;;;2.25;;
37311;SDS011;23197;53.912;9.138;2022-07-30T12:21:29;4.53;;;2.33;;
37311;SDS011;23197;53.912;9.138;2022-07-30T12:24:01;5.25;;;2.38;;
37311;SDS011;23197;53.912;9.138;2022-07-30T12:26:32;4.22;;;2.33;;
37311;SDS011;23197;53.912;9.138;2022-07-30T12:29:05;4.53;;;2.58;;
37311;SDS011;23197;53.912;9.138;2022-07-30T12:31:37;4.72;;;2.30;;
37311;SDS011;23197;53.912;9.138;2022-07-30T12:34:04;4.35;;;2.58;;
37311;SDS011;23197;53.912;9.138;2022-07-30T12:36:42;4.90;;;2.53;;
37311;SDS011;23197;53.912;9.138;2022-07-30T12:39:08;4.97;;;2.58;;
37311;SDS011;23197;53.912;9.138;2022-07-30T12:41:47;5.05;;;2.60;;
37311;SDS011;23197;53.912;9.138;2022-07-30T12:47:16;5.80;;;2.70;;
37311;SDS011;23197;53.912;9.138;2022-07-30T12:49:44;6.38;;;2.80;;
37311;SDS011;23197;53.912;9.138;2022-07-30T12:52:18;4.15;;;2.42;;
37311;SDS011;23197;53.912;9.138;2022-07-30T12:57:22;4.80;;;2.10;;
37311;SDS011;23197;53.912;9.138;2022-07-30T12:59:59;6.05;;;2.00;;
37311;SDS011;23197;53.912;9.138;2022-07-30T13:02:33;4.05;;;2.28;;
37311;SDS011;23197;53.912;9.138;2022-07-30T13:04:59;6.20;;;2.33;;
37311;SDS011;23197;53.912;9.138;2022-07-30T13:07:25;4.78;;;2.35;;
37311;SDS011;23197;53.912;9.138;2022-07-30T13:10:09;5.47;;;2.42;;
37311;SDS011;23197;53.912;9.138;2022-07-30T13:12:36;6.75;;;2.40;;
37311;SDS011;23197;53.912;9.138;2022-07-30T13:15:02;4.07;;;2.22;;
37311;SDS011;23197;53.912;9.138;2022-07-30T13:17:31;4.53;;;2.20;;
37311;SDS011;23197;53.912;9.138;2022-07-30T13:19:56;5.18;;;2.28;;
37311;SDS011;23197;53.912;9.138;2022-07-30T13:22:24;3.40;;;2.03;;
37311;SDS011;23197;53.912;9.138;2022-07-30T13:24:49;5.15;;;2.03;;
37311;SDS011;23197;53.912;9.138;2022-07-30T13:27:15;4.82;;;2.10;;
37311;SDS011;23197;53.912;9.138;2022-07-30T13:29:43;3.55;;;2.10;;
37311;SDS011;23197;53.912;9.138;2022-07-30T13:32:08;4.47;;;2.17;;
37311;SDS011;23197;53.912;9.138;2022-07-30T13:34:34;4.40;;;2.00;;
37311;SDS011;23197;53.912;9.138;2022-07-30T13:36:59;3.88;;;2.05;;
37311;SDS011;23197;53.912;9.138;2022-07-30T13:39:25;3.55;;;1.90;;
37311;SDS011;23197;53.912;9.138;2022-07-30T13:41:50;4.72;;;2.25;;
37311;SDS011;23197;53.912;9.138;2022-07-30T13:44:16;5.57;;;2.10;;
37311;SDS011;23197;53.912;9.138;2022-07-30T13:46:42;3.80;;;2.05;;
37311;SDS011;23197;53.912;9.138;2022-07-30T13:49:07;4.28;;;2.20;;
37311;SDS011;23197;53.912;9.138;2022-07-30T13:51:34;4.97;;;1.92;;
37311;SDS011;23197;53.912;9.138;2022-07-30T13:54:00;5.28;;;2.10;;
37311;SDS011;23197;53.912;9.138;2022-07-30T13:56:25;5.53;;;2.20;;
37311;SDS011;23197;53.912;9.138;2022-07-30T13:58:51;3.88;;;2.17;;
37311;SDS011;23197;53.912;9.138;2022-07-30T14:01:16;4.45;;;2.05;;
37311;SDS011;23197;53.912;9.138;2022-07-30T14:03:42;4.38;;;2.00;;
37311;SDS011;23197;53.912;9.138;2022-07-30T14:06:07;3.67;;;2.08;;
37311;SDS011;23197;53.912;9.138;2022-07-30T14:08:32;4.40;;;2.05;;
37311;SDS011;23197;53.912;9.138;2022-07-30T14:10:58;4.88;;;1.77;;
37311;SDS011;23197;53.912;9.138;2022-07-30T14:13:23;4.05;;;2.10;;
37311;SDS011;23197;53.912;9.138;2022-07-30T14:15:49;4.35;;;1.70;;
37311;SDS011;23197;53.912;9.138;2022-07-30T14:18:15;3.88;;;2.00;;
37311;SDS011;23197;53.912;9.138;2022-07-30T14:20:41;3.28;;;1.80;;
37311;SDS011;23197;53.912;9.138;2022-07-30T14:23:06;3.97;;;2.10;;
37311;SDS011;23197;53.912;9.138;2022-07-30T14:25:33;5.53;;;1.90;;
37311;SDS011;23197;53.912;9.138;2022-07-30T14:27:58;3.47;;;1.70;;
37311;SDS011;23197;53.912;9.138;2022-07-30T14:30:23;3.42;;;1.85;;
37311;SDS011;23197;53.912;9.138;2022-07-30T14:32:49;3.45;;;1.92;;
37311;SDS011;23197;53.912;9.138;2022-07-30T14:35:14;3.15;;;1.77;;
37311;SDS011;23197;53.912;9.138;2022-07-30T14:37:40;6.70;;;2.20;;
37311;SDS011;23197;53.912;9.138;2022-07-30T14:40:07;3.50;;;1.70;;
37311;SDS011;23197;53.912;9.138;2022-07-30T14:42:35;4.50;;;2.10;;
37311;SDS011;23197;53.912;9.138;2022-07-30T14:45:02;2.88;;;1.75;;
37311;SDS011;23197;53.912;9.138;2022-07-30T14:47:28;4.72;;;1.80;;
37311;SDS011;23197;53.912;9.138;2022-07-30T14:49:54;3.80;;;2.00;;
37311;SDS011;23197;53.912;9.138;2022-07-30T14:52:19;4.25;;;2.05;;
37311;SDS011;23197;53.912;9.138;2022-07-30T14:54:45;3.17;;;2.00;;
37311;SDS011;23197;53.912;9.138;2022-07-30T14:57:10;3.63;;;2.00;;
37311;SDS011;23197;53.912;9.138;2022-07-30T14:59:36;3.60;;;1.95;;
37311;SDS011;23197;53.912;9.138;2022-07-30T15:02:01;4.78;;;1.92;;
37311;SDS011;23197;53.912;9.138;2022-07-30T15:04:27;4.72;;;2.05;;
37311;SDS011;23197;53.912;9.138;2022-07-30T15:06:53;3.35;;;1.90;;
37311;SDS011;23197;53.912;9.138;2022-07-30T15:09:19;3.88;;;1.90;;
37311;SDS011;23197;53.912;9.138;2022-07-30T15:11:44;3.75;;;1.83;;
37311;SDS011;23197;53.912;9.138;2022-07-30T15:14:10;3.58;;;1.90;;
37311;SDS011;23197;53.912;9.138;2022-07-30T15:16:36;3.42;;;2.03;;
37311;SDS011;23197;53.912;9.138;2022-07-30T15:19:02;3.95;;;1.95;;
37311;SDS011;23197;53.912;9.138;2022-07-30T15:21:28;3.65;;;2.00;;
37311;SDS011;23197;53.912;9.138;2022-07-30T15:23:53;10.38;;;2.47;;
37311;SDS011;23197;53.912;9.138;2022-07-30T15:26:19;3.20;;;1.77;;
37311;SDS011;23197;53.912;9.138;2022-07-30T15:28:44;8.40;;;2.30;;
37311;SDS011;23197;53.912;9.138;2022-07-30T15:31:10;2.83;;;2.03;;
37311;SDS011;23197;53.912;9.138;2022-07-30T15:33:35;3.50;;;2.00;;
37311;SDS011;23197;53.912;9.138;2022-07-30T15:36:05;3.83;;;1.90;;
37311;SDS011;23197;53.912;9.138;2022-07-30T15:38:31;4.20;;;2.00;;
37311;SDS011;23197;53.912;9.138;2022-07-30T15:40:57;3.65;;;2.00;;
37311;SDS011;23197;53.912;9.138;2022-07-30T15:43:23;3.75;;;2.00;;
37311;SDS011;23197;53.912;9.138;2022-07-30T15:45:48;3.95;;;2.15;;
37311;SDS011;23197;53.912;9.138;2022-07-30T15:48:13;4.10;;;2.00;;
37311;SDS011;23197;53.912;9.138;2022-07-30T15:50:39;4.40;;;1.88;;